sensor_id;sensor_type;location;lat;lon;timestamp;P1;durP1;ratioP1;P2;durP2;ratioP2
5871;SDS011;2962;51.312;7.378;2023-06-22T00:00:50;4.90;;;4.67;;
5871;SDS011;2962;51.312;7.378;2023-06-22T00:03:19;4.00;;;3.70;;
5871;SDS011;2962;51.312;7.378;2023-06-22T00:05:45;5.07;;;4.60;;
5871;SDS011;2962;51.312;7.378;2023-06-22T00:08:11;4.40;;;4.00;;
5871;SDS011;2962;51.312;7.378;2023-06-22T00:10:37;5.07;;;4.67;;
5871;SDS011;2962;51.312;7.378;2023-06-22T00:13:02;4.13;;;4.00;;
5871;SDS011;2962;51.312;7.378;2023-06-22T00:15:28;4.93;;;4.43;;
5871;SDS011;2962;51.312;7.378;2023-06-22T00:17:54;4.43;;;4.03;;
5871;SDS011;2962;51.312;7.378;2023-06-22T00:20:19;4.17;;;3.83;;
5871;SDS011;2962;51.312;7.378;2023-06-22T00:22:45;4.73;;;4.53;;
5871;SDS011;2962;51.312;7.378;2023-06-22T00:25:12;4.30;;;4.00;;
5871;SDS011;2962;51.312;7.378;2023-06-22T00:27:38;4.53;;;4.10;;
5871;SDS011;2962;51.312;7.378;2023-06-22T00:30:03;4.33;;;4.03;;
5871;SDS011;2962;51.312;7.378;2023-06-22T00:32:29;4.63;;;4.43;;
5871;SDS011;2962;51.312;7.378;2023-06-22T00:34:54;5.20;;;4.90;;
5871;SDS011;2962;51.312;7.378;2023-06-22T00:37:19;4.67;;;4.47;;
5871;SDS011;2962;51.312;7.378;2023-06-22T00:39:47;5.43;;;5.13;;
5871;SDS011;2962;51.312;7.378;2023-06-22T00:42:13;5.27;;;4.60;;
5871;SDS011;2962;51.312;7.378;2023-06-22T00:44:39;5.23;;;4.93;;
5871;SDS011;2962;51.312;7.378;2023-06-22T00:47:04;5.70;;;5.30;;
5871;SDS011;2962;51.312;7.378;2023-06-22T00:49:29;6.80;;;6.30;;
5871;SDS011;2962;51.312;7.378;2023-06-22T00:51:56;6.63;;;5.80;;
5871;SDS011;2962;51.312;7.378;2023-06-22T00:54:22;6.10;;;5.70;;
5871;SDS011;2962;51.312;7.378;2023-06-22T00:56:55;6.47;;;6.07;;
5871;SDS011;2962;51.312;7.378;2023-06-22T00:59:23;8.90;;;6.43;;
5871;SDS011;2962;51.312;7.378;2023-06-22T01:01:49;8.03;;;7.23;;
5871;SDS011;2962;51.312;7.378;2023-06-22T01:04:14;9.30;;;7.33;;
5871;SDS011;2962;51.312;7.378;2023-06-22T01:06:42;7.90;;;7.20;;
5871;SDS011;2962;51.312;7.378;2023-06-22T01:09:20;7.80;;;7.10;;
5871;SDS011;2962;51.312;7.378;2023-06-22T01:11:54;7.47;;;6.80;;
5871;SDS011;2962;51.312;7.378;2023-06-22T01:14:41;7.60;;;7.00;;
5871;SDS011;2962;51.312;7.378;2023-06-22T01:17:12;7.37;;;6.77;;
5871;SDS011;2962;51.312;7.378;2023-06-22T01:19:45;9.50;;;7.17;;
5871;SDS011;2962;51.312;7.378;2023-06-22T01:22:19;7.07;;;6.57;;
5871;SDS011;2962;51.312;7.378;2023-06-22T01:25:32;9.90;;;6.80;;
5871;SDS011;2962;51.312;7.378;2023-06-22T01:30:40;7.40;;;6.83;;
5871;SDS011;2962;51.312;7.378;2023-06-22T01:33:06;6.43;;;5.93;;
5871;SDS011;2962;51.312;7.378;2023-06-22T01:35:33;7.77;;;7.10;;
5871;SDS011;2962;51.312;7.378;2023-06-22T01:37:59;7.97;;;7.37;;
5871;SDS011;2962;51.312;7.378;2023-06-22T01:40:24;7.83;;;7.10;;
5871;SDS011;2962;51.312;7.378;2023-06-22T01:42:51;14.27;;;8.10;;
5871;SDS011;2962;51.312;7.378;2023-06-22T01:45:17;8.00;;;7.43;;
5871;SDS011;2962;51.312;7.378;2023-06-22T01:47:43;9.27;;;8.37;;
5871;SDS011;2962;51.312;7.378;2023-06-22T01:50:09;8.23;;;7.53;;
5871;SDS011;2962;51.312;7.378;2023-06-22T01:52:34;8.17;;;7.57;;
5871;SDS011;2962;51.312;7.378;2023-06-22T01:55:00;8.00;;;7.00;;
5871;SDS011;2962;51.312;7.378;2023-06-22T01:57:26;7.67;;;7.07;;
5871;SDS011;2962;51.312;7.378;2023-06-22T02:02:25;7.47;;;6.90;;
5871;SDS011;2962;51.312;7.378;2023-06-22T02:04:59;8.60;;;7.80;;
5871;SDS011;2962;51.312;7.378;2023-06-22T02:07:32;9.77;;;7.90;;
5871;SDS011;2962;51.312;7.378;2023-06-22T02:10:02;7.47;;;6.90;;
5871;SDS011;2962;51.312;7.378;2023-06-22T02:12:31;7.03;;;6.50;;
5871;SDS011;2962;51.312;7.378;2023-06-22T02:14:58;9.73;;;7.67;;
5871;SDS011;2962;51.312;7.378;2023-06-22T02:17:26;7.87;;;7.17;;
5871;SDS011;2962;51.312;7.378;2023-06-22T02:19:51;8.20;;;7.40;;
5871;SDS011;2962;51.312;7.378;2023-06-22T02:22:17;10.83;;;7.60;;
5871;SDS011;2962;51.312;7.378;2023-06-22T02:24:43;7.77;;;7.07;;
5871;SDS011;2962;51.312;7.378;2023-06-22T02:27:08;7.90;;;7.33;;
5871;SDS011;2962;51.312;7.378;2023-06-22T02:29:33;7.93;;;7.23;;
5871;SDS011;2962;51.312;7.378;2023-06-22T02:31:59;7.50;;;6.90;;
5871;SDS011;2962;51.312;7.378;2023-06-22T02:34:24;7.70;;;7.20;;
5871;SDS011;2962;51.312;7.378;2023-06-22T02:36:49;7.67;;;7.20;;
5871;SDS011;2962;51.312;7.378;2023-06-22T02:39:19;7.77;;;7.17;;
5871;SDS011;2962;51.312;7.378;2023-06-22T02:41:45;10.90;;;8.00;;
5871;SDS011;2962;51.312;7.378;2023-06-22T02:44:10;9.37;;;7.47;;
5871;SDS011;2962;51.312;7.378;2023-06-22T02:46:35;8.07;;;7.47;;
5871;SDS011;2962;51.312;7.378;2023-06-22T02:49:01;9.27;;;7.90;;
5871;SDS011;2962;51.312;7.378;2023-06-22T02:51:26;8.97;;;8.07;;
5871;SDS011;2962;51.312;7.378;2023-06-22T02:53:51;9.33;;;8.43;;
5871;SDS011;2962;51.312;7.378;2023-06-22T02:56:22;8.70;;;8.00;;
5871;SDS011;2962;51.312;7.378;2023-06-22T02:58:50;9.10;;;7.87;;
5871;SDS011;2962;51.312;7.378;2023-06-22T03:01:16;9.30;;;8.47;;
5871;SDS011;2962;51.312;7.378;2023-06-22T03:03:42;9.00;;;8.30;;
5871;SDS011;2962;51.312;7.378;2023-06-22T03:06:07;9.77;;;8.47;;
5871;SDS011;2962;51.312;7.378;2023-06-22T03:08:32;9.17;;;8.33;;
5871;SDS011;2962;51.312;7.378;2023-06-22T03:10:58;9.53;;;8.73;;
5871;SDS011;2962;51.312;7.378;2023-06-22T03:13:23;9.80;;;8.90;;
5871;SDS011;2962;51.312;7.378;2023-06-22T03:15:49;9.63;;;8.93;;
5871;SDS011;2962;51.312;7.378;2023-06-22T03:18:14;8.80;;;8.00;;
5871;SDS011;2962;51.312;7.378;2023-06-22T03:20:40;8.20;;;7.60;;
5871;SDS011;2962;51.312;7.378;2023-06-22T03:23:06;8.43;;;7.67;;
5871;SDS011;2962;51.312;7.378;2023-06-22T03:25:31;10.20;;;8.97;;
5871;SDS011;2962;51.312;7.378;2023-06-22T03:27:58;9.43;;;8.63;;
5871;SDS011;2962;51.312;7.378;2023-06-22T03:30:23;8.37;;;7.73;;
5871;SDS011;2962;51.312;7.378;2023-06-22T03:32:49;9.03;;;8.27;;
5871;SDS011;2962;51.312;7.378;2023-06-22T03:35:14;8.20;;;7.57;;
5871;SDS011;2962;51.312;7.378;2023-06-22T03:37:39;8.67;;;8.03;;
5871;SDS011;2962;51.312;7.378;2023-06-22T03:40:05;9.00;;;8.10;;
5871;SDS011;2962;51.312;7.378;2023-06-22T03:42:31;8.53;;;7.30;;
5871;SDS011;2962;51.312;7.378;2023-06-22T03:44:56;8.60;;;7.90;;
5871;SDS011;2962;51.312;7.378;2023-06-22T03:47:22;13.17;;;8.30;;
5871;SDS011;2962;51.312;7.378;2023-06-22T03:49:47;9.37;;;8.50;;
5871;SDS011;2962;51.312;7.378;2023-06-22T03:52:12;9.50;;;8.63;;
5871;SDS011;2962;51.312;7.378;2023-06-22T03:54:37;9.63;;;8.73;;
5871;SDS011;2962;51.312;7.378;2023-06-22T03:57:03;8.57;;;7.97;;
5871;SDS011;2962;51.312;7.378;2023-06-22T03:59:28;9.43;;;8.60;;
5871;SDS011;2962;51.312;7.378;2023-06-22T04:01:54;8.87;;;8.07;;
5871;SDS011;2962;51.312;7.378;2023-06-22T04:04:19;10.20;;;9.20;;
5871;SDS011;2962;51.312;7.378;2023-06-22T04:06:45;10.50;;;7.87;;
5871;SDS011;2962;51.312;7.378;2023-06-22T04:09:10;9.30;;;8.60;;
5871;SDS011;2962;51.312;7.378;2023-06-22T04:11:36;8.23;;;7.67;;
5871;SDS011;2962;51.312;7.378;2023-06-22T04:14:01;8.20;;;7.60;;
5871;SDS011;2962;51.312;7.378;2023-06-22T04:16:26;9.60;;;9.00;;
5871;SDS011;2962;51.312;7.378;2023-06-22T04:18:52;11.90;;;8.17;;
5871;SDS011;2962;51.312;7.378;2023-06-22T04:21:17;8.30;;;7.37;;
5871;SDS011;2962;51.312;7.378;2023-06-22T04:23:44;8.97;;;8.17;;
5871;SDS011;2962;51.312;7.378;2023-06-22T04:26:10;7.80;;;7.10;;
5871;SDS011;2962;51.312;7.378;2023-06-22T04:28:36;8.27;;;7.57;;
5871;SDS011;2962;51.312;7.378;2023-06-22T04:31:02;7.80;;;7.27;;
5871;SDS011;2962;51.312;7.378;2023-06-22T04:33:28;9.80;;;7.90;;
5871;SDS011;2962;51.312;7.378;2023-06-22T04:35:54;8.13;;;7.43;;
5871;SDS011;2962;51.312;7.378;2023-06-22T04:38:22;8.77;;;8.17;;
5871;SDS011;2962;51.312;7.378;2023-06-22T04:40:47;9.73;;;8.93;;
5871;SDS011;2962;51.312;7.378;2023-06-22T04:43:13;10.20;;;7.93;;
5871;SDS011;2962;51.312;7.378;2023-06-22T04:45:38;8.47;;;7.80;;
5871;SDS011;2962;51.312;7.378;2023-06-22T04:48:04;11.10;;;7.47;;
5871;SDS011;2962;51.312;7.378;2023-06-22T04:50:30;10.07;;;9.30;;
5871;SDS011;2962;51.312;7.378;2023-06-22T04:52:55;9.23;;;8.43;;
5871;SDS011;2962;51.312;7.378;2023-06-22T04:55:20;8.67;;;8.07;;
5871;SDS011;2962;51.312;7.378;2023-06-22T04:57:46;9.47;;;8.80;;
5871;SDS011;2962;51.312;7.378;2023-06-22T05:00:15;12.13;;;8.80;;
5871;SDS011;2962;51.312;7.378;2023-06-22T05:02:42;9.00;;;8.40;;
5871;SDS011;2962;51.312;7.378;2023-06-22T05:05:09;9.20;;;8.50;;
5871;SDS011;2962;51.312;7.378;2023-06-22T05:07:38;9.60;;;8.27;;
5871;SDS011;2962;51.312;7.378;2023-06-22T05:10:07;8.27;;;7.77;;
5871;SDS011;2962;51.312;7.378;2023-06-22T05:12:33;8.00;;;7.50;;
5871;SDS011;2962;51.312;7.378;2023-06-22T05:14:58;8.53;;;7.67;;
5871;SDS011;2962;51.312;7.378;2023-06-22T05:17:24;8.50;;;7.90;;
5871;SDS011;2962;51.312;7.378;2023-06-22T05:19:49;8.00;;;7.47;;
5871;SDS011;2962;51.312;7.378;2023-06-22T05:22:15;9.63;;;8.83;;
5871;SDS011;2962;51.312;7.378;2023-06-22T05:24:41;8.30;;;7.47;;
5871;SDS011;2962;51.312;7.378;2023-06-22T05:27:06;8.57;;;7.97;;
5871;SDS011;2962;51.312;7.378;2023-06-22T05:29:31;9.43;;;8.70;;
5871;SDS011;2962;51.312;7.378;2023-06-22T05:31:57;9.37;;;8.50;;
5871;SDS011;2962;51.312;7.378;2023-06-22T05:34:22;9.37;;;8.57;;
5871;SDS011;2962;51.312;7.378;2023-06-22T05:36:47;11.83;;;7.93;;
5871;SDS011;2962;51.312;7.378;2023-06-22T05:39:13;8.60;;;8.03;;
5871;SDS011;2962;51.312;7.378;2023-06-22T05:41:39;9.53;;;8.73;;
5871;SDS011;2962;51.312;7.378;2023-06-22T05:44:04;9.07;;;8.37;;
5871;SDS011;2962;51.312;7.378;2023-06-22T05:46:29;10.43;;;8.97;;
5871;SDS011;2962;51.312;7.378;2023-06-22T05:48:55;9.43;;;8.70;;
5871;SDS011;2962;51.312;7.378;2023-06-22T05:51:20;9.00;;;8.20;;
5871;SDS011;2962;51.312;7.378;2023-06-22T05:53:45;9.73;;;8.80;;
5871;SDS011;2962;51.312;7.378;2023-06-22T05:56:14;9.97;;;9.17;;
5871;SDS011;2962;51.312;7.378;2023-06-22T05:58:40;11.00;;;9.87;;
5871;SDS011;2962;51.312;7.378;2023-06-22T06:01:05;10.57;;;9.47;;
5871;SDS011;2962;51.312;7.378;2023-06-22T06:03:30;10.60;;;9.47;;
5871;SDS011;2962;51.312;7.378;2023-06-22T06:05:55;10.60;;;9.50;;
5871;SDS011;2962;51.312;7.378;2023-06-22T06:08:21;11.67;;;10.43;;
5871;SDS011;2962;51.312;7.378;2023-06-22T06:10:46;12.27;;;11.20;;
5871;SDS011;2962;51.312;7.378;2023-06-22T06:13:12;14.53;;;10.37;;
5871;SDS011;2962;51.312;7.378;2023-06-22T06:15:37;11.50;;;9.90;;
5871;SDS011;2962;51.312;7.378;2023-06-22T06:18:03;10.90;;;9.90;;
5871;SDS011;2962;51.312;7.378;2023-06-22T06:20:30;11.00;;;10.20;;
5871;SDS011;2962;51.312;7.378;2023-06-22T06:22:56;15.33;;;10.00;;
5871;SDS011;2962;51.312;7.378;2023-06-22T06:25:22;10.80;;;10.07;;
5871;SDS011;2962;51.312;7.378;2023-06-22T06:27:48;13.40;;;11.57;;
5871;SDS011;2962;51.312;7.378;2023-06-22T06:30:15;11.57;;;10.67;;
5871;SDS011;2962;51.312;7.378;2023-06-22T06:32:42;11.07;;;10.07;;
5871;SDS011;2962;51.312;7.378;2023-06-22T06:35:10;11.03;;;10.10;;
5871;SDS011;2962;51.312;7.378;2023-06-22T06:37:36;10.90;;;9.90;;
5871;SDS011;2962;51.312;7.378;2023-06-22T06:40:06;10.83;;;10.03;;
5871;SDS011;2962;51.312;7.378;2023-06-22T06:42:45;11.20;;;10.10;;
5871;SDS011;2962;51.312;7.378;2023-06-22T06:45:14;11.03;;;10.10;;
5871;SDS011;2962;51.312;7.378;2023-06-22T06:47:42;10.20;;;9.50;;
5871;SDS011;2962;51.312;7.378;2023-06-22T06:50:07;12.13;;;10.77;;
5871;SDS011;2962;51.312;7.378;2023-06-22T06:52:33;11.53;;;10.50;;
5871;SDS011;2962;51.312;7.378;2023-06-22T06:54:59;10.83;;;9.90;;
5871;SDS011;2962;51.312;7.378;2023-06-22T06:57:24;11.10;;;10.20;;
5871;SDS011;2962;51.312;7.378;2023-06-22T06:59:54;10.60;;;9.80;;
5871;SDS011;2962;51.312;7.378;2023-06-22T07:02:21;13.13;;;11.53;;
5871;SDS011;2962;51.312;7.378;2023-06-22T07:04:46;12.40;;;10.40;;
5871;SDS011;2962;51.312;7.378;2023-06-22T07:07:12;10.87;;;9.70;;
5871;SDS011;2962;51.312;7.378;2023-06-22T07:09:37;10.30;;;9.50;;
5871;SDS011;2962;51.312;7.378;2023-06-22T07:12:02;14.73;;;10.13;;
5871;SDS011;2962;51.312;7.378;2023-06-22T07:14:28;10.63;;;9.73;;
5871;SDS011;2962;51.312;7.378;2023-06-22T07:16:53;11.03;;;9.90;;
5871;SDS011;2962;51.312;7.378;2023-06-22T07:19:24;12.33;;;9.67;;
5871;SDS011;2962;51.312;7.378;2023-06-22T07:21:50;13.73;;;11.00;;
5871;SDS011;2962;51.312;7.378;2023-06-22T07:24:15;10.77;;;9.77;;
5871;SDS011;2962;51.312;7.378;2023-06-22T07:26:41;11.33;;;10.13;;
5871;SDS011;2962;51.312;7.378;2023-06-22T07:29:10;9.20;;;8.50;;
5871;SDS011;2962;51.312;7.378;2023-06-22T07:31:35;12.40;;;8.73;;
5871;SDS011;2962;51.312;7.378;2023-06-22T07:34:01;11.50;;;10.40;;
5871;SDS011;2962;51.312;7.378;2023-06-22T07:36:27;12.20;;;10.53;;
5871;SDS011;2962;51.312;7.378;2023-06-22T07:38:55;12.00;;;11.00;;
5871;SDS011;2962;51.312;7.378;2023-06-22T07:41:20;12.97;;;11.80;;
5871;SDS011;2962;51.312;7.378;2023-06-22T07:43:45;12.27;;;10.97;;
5871;SDS011;2962;51.312;7.378;2023-06-22T07:46:10;12.80;;;11.50;;
5871;SDS011;2962;51.312;7.378;2023-06-22T07:48:36;14.03;;;12.67;;
5871;SDS011;2962;51.312;7.378;2023-06-22T07:51:02;15.10;;;12.43;;
5871;SDS011;2962;51.312;7.378;2023-06-22T07:53:27;13.23;;;12.10;;
5871;SDS011;2962;51.312;7.378;2023-06-22T07:55:53;12.90;;;11.70;;
5871;SDS011;2962;51.312;7.378;2023-06-22T07:58:18;14.43;;;12.77;;
5871;SDS011;2962;51.312;7.378;2023-06-22T08:00:45;12.70;;;11.40;;
5871;SDS011;2962;51.312;7.378;2023-06-22T08:03:10;11.40;;;10.30;;
5871;SDS011;2962;51.312;7.378;2023-06-22T08:05:36;10.90;;;10.00;;
5871;SDS011;2962;51.312;7.378;2023-06-22T08:08:01;9.73;;;8.90;;
5871;SDS011;2962;51.312;7.378;2023-06-22T08:10:26;9.87;;;9.07;;
5871;SDS011;2962;51.312;7.378;2023-06-22T08:12:52;9.50;;;8.70;;
5871;SDS011;2962;51.312;7.378;2023-06-22T08:15:17;12.03;;;9.13;;
5871;SDS011;2962;51.312;7.378;2023-06-22T08:17:43;10.80;;;9.90;;
5871;SDS011;2962;51.312;7.378;2023-06-22T08:20:10;13.00;;;11.23;;
5871;SDS011;2962;51.312;7.378;2023-06-22T08:22:37;18.57;;;12.10;;
5871;SDS011;2962;51.312;7.378;2023-06-22T08:25:03;13.33;;;12.07;;
5871;SDS011;2962;51.312;7.378;2023-06-22T08:27:32;15.60;;;13.27;;
5871;SDS011;2962;51.312;7.378;2023-06-22T08:29:57;13.83;;;12.23;;
5871;SDS011;2962;51.312;7.378;2023-06-22T08:32:24;14.13;;;12.77;;
5871;SDS011;2962;51.312;7.378;2023-06-22T08:34:51;12.63;;;9.40;;
5871;SDS011;2962;51.312;7.378;2023-06-22T08:37:17;10.40;;;8.20;;
5871;SDS011;2962;51.312;7.378;2023-06-22T08:39:42;10.27;;;8.77;;
5871;SDS011;2962;51.312;7.378;2023-06-22T08:42:08;11.73;;;8.90;;
5871;SDS011;2962;51.312;7.378;2023-06-22T08:44:33;10.00;;;9.20;;
5871;SDS011;2962;51.312;7.378;2023-06-22T08:46:59;9.07;;;8.47;;
5871;SDS011;2962;51.312;7.378;2023-06-22T08:49:24;9.50;;;8.70;;
5871;SDS011;2962;51.312;7.378;2023-06-22T08:51:49;11.33;;;9.33;;
5871;SDS011;2962;51.312;7.378;2023-06-22T08:54:17;10.40;;;9.43;;
5871;SDS011;2962;51.312;7.378;2023-06-22T08:56:42;10.37;;;9.57;;
5871;SDS011;2962;51.312;7.378;2023-06-22T08:59:09;8.77;;;8.10;;
5871;SDS011;2962;51.312;7.378;2023-06-22T09:01:34;8.80;;;8.00;;
5871;SDS011;2962;51.312;7.378;2023-06-22T09:03:59;7.93;;;7.43;;
5871;SDS011;2962;51.312;7.378;2023-06-22T09:06:25;8.77;;;8.03;;
5871;SDS011;2962;51.312;7.378;2023-06-22T09:08:50;8.00;;;7.40;;
5871;SDS011;2962;51.312;7.378;2023-06-22T09:11:15;9.87;;;9.00;;
5871;SDS011;2962;51.312;7.378;2023-06-22T09:13:41;8.23;;;6.87;;
5871;SDS011;2962;51.312;7.378;2023-06-22T09:16:07;9.70;;;7.07;;
5871;SDS011;2962;51.312;7.378;2023-06-22T09:18:33;10.63;;;7.97;;
5871;SDS011;2962;51.312;7.378;2023-06-22T09:20:59;7.57;;;6.93;;
5871;SDS011;2962;51.312;7.378;2023-06-22T09:23:24;8.30;;;7.50;;
5871;SDS011;2962;51.312;7.378;2023-06-22T09:25:49;8.07;;;7.50;;
5871;SDS011;2962;51.312;7.378;2023-06-22T09:28:15;6.23;;;5.60;;
5871;SDS011;2962;51.312;7.378;2023-06-22T09:30:40;6.20;;;5.90;;
5871;SDS011;2962;51.312;7.378;2023-06-22T09:33:05;7.07;;;6.53;;
5871;SDS011;2962;51.312;7.378;2023-06-22T09:35:31;6.83;;;6.30;;
5871;SDS011;2962;51.312;7.378;2023-06-22T09:37:56;7.50;;;7.00;;
5871;SDS011;2962;51.312;7.378;2023-06-22T09:40:22;8.70;;;7.90;;
5871;SDS011;2962;51.312;7.378;2023-06-22T09:42:47;8.20;;;7.67;;
5871;SDS011;2962;51.312;7.378;2023-06-22T09:45:12;8.60;;;8.10;;
5871;SDS011;2962;51.312;7.378;2023-06-22T09:47:38;9.53;;;8.90;;
5871;SDS011;2962;51.312;7.378;2023-06-22T09:50:03;9.60;;;9.00;;
5871;SDS011;2962;51.312;7.378;2023-06-22T09:52:29;9.00;;;8.20;;
5871;SDS011;2962;51.312;7.378;2023-06-22T09:54:54;8.23;;;7.73;;
5871;SDS011;2962;51.312;7.378;2023-06-22T09:57:20;9.20;;;8.70;;
5871;SDS011;2962;51.312;7.378;2023-06-22T09:59:45;11.57;;;8.77;;
5871;SDS011;2962;51.312;7.378;2023-06-22T10:02:10;9.23;;;8.53;;
5871;SDS011;2962;51.312;7.378;2023-06-22T10:04:35;8.23;;;7.53;;
5871;SDS011;2962;51.312;7.378;2023-06-22T10:07:01;10.80;;;8.03;;
5871;SDS011;2962;51.312;7.378;2023-06-22T10:09:27;8.77;;;8.00;;
5871;SDS011;2962;51.312;7.378;2023-06-22T10:11:53;8.03;;;7.33;;
5871;SDS011;2962;51.312;7.378;2023-06-22T10:14:18;10.10;;;7.40;;
5871;SDS011;2962;51.312;7.378;2023-06-22T10:16:43;7.13;;;6.60;;
5871;SDS011;2962;51.312;7.378;2023-06-22T10:19:09;7.57;;;7.07;;
5871;SDS011;2962;51.312;7.378;2023-06-22T10:21:34;6.30;;;6.00;;
5871;SDS011;2962;51.312;7.378;2023-06-22T10:24:00;6.73;;;6.53;;
5871;SDS011;2962;51.312;7.378;2023-06-22T10:26:31;9.53;;;6.30;;
5871;SDS011;2962;51.312;7.378;2023-06-22T10:28:59;6.93;;;6.50;;
5871;SDS011;2962;51.312;7.378;2023-06-22T10:31:24;6.10;;;5.80;;
5871;SDS011;2962;51.312;7.378;2023-06-22T10:33:50;7.10;;;6.60;;
5871;SDS011;2962;51.312;7.378;2023-06-22T10:36:15;6.63;;;6.20;;
5871;SDS011;2962;51.312;7.378;2023-06-22T10:38:41;7.93;;;7.30;;
5871;SDS011;2962;51.312;7.378;2023-06-22T10:41:06;7.00;;;6.60;;
5871;SDS011;2962;51.312;7.378;2023-06-22T10:43:31;8.40;;;7.80;;
5871;SDS011;2962;51.312;7.378;2023-06-22T10:45:57;9.53;;;8.60;;
5871;SDS011;2962;51.312;7.378;2023-06-22T10:48:25;10.53;;;9.77;;
5871;SDS011;2962;51.312;7.378;2023-06-22T10:50:50;11.17;;;10.27;;
5871;SDS011;2962;51.312;7.378;2023-06-22T10:53:15;10.20;;;9.40;;
5871;SDS011;2962;51.312;7.378;2023-06-22T10:55:41;9.47;;;8.93;;
5871;SDS011;2962;51.312;7.378;2023-06-22T10:58:06;11.30;;;10.57;;
5871;SDS011;2962;51.312;7.378;2023-06-22T11:00:31;11.70;;;10.60;;
5871;SDS011;2962;51.312;7.378;2023-06-22T11:02:57;12.10;;;11.07;;
5871;SDS011;2962;51.312;7.378;2023-06-22T11:05:23;12.60;;;11.50;;
5871;SDS011;2962;51.312;7.378;2023-06-22T11:07:48;10.93;;;10.07;;
5871;SDS011;2962;51.312;7.378;2023-06-22T11:10:14;13.60;;;10.53;;
5871;SDS011;2962;51.312;7.378;2023-06-22T11:12:40;17.70;;;12.57;;
5871;SDS011;2962;51.312;7.378;2023-06-22T11:15:05;12.53;;;11.53;;
5871;SDS011;2962;51.312;7.378;2023-06-22T11:17:31;12.57;;;11.47;;
5871;SDS011;2962;51.312;7.378;2023-06-22T11:19:56;14.00;;;12.57;;
5871;SDS011;2962;51.312;7.378;2023-06-22T11:22:22;13.43;;;12.23;;
5871;SDS011;2962;51.312;7.378;2023-06-22T11:24:47;12.23;;;11.17;;
5871;SDS011;2962;51.312;7.378;2023-06-22T11:27:12;15.73;;;13.63;;
5871;SDS011;2962;51.312;7.378;2023-06-22T11:29:38;16.60;;;13.67;;
5871;SDS011;2962;51.312;7.378;2023-06-22T11:32:05;15.67;;;14.20;;
5871;SDS011;2962;51.312;7.378;2023-06-22T11:34:32;14.63;;;13.10;;
5871;SDS011;2962;51.312;7.378;2023-06-22T11:36:57;20.37;;;15.43;;
5871;SDS011;2962;51.312;7.378;2023-06-22T11:39:22;17.30;;;15.47;;
5871;SDS011;2962;51.312;7.378;2023-06-22T11:41:47;18.50;;;16.60;;
5871;SDS011;2962;51.312;7.378;2023-06-22T11:44:13;19.07;;;17.20;;
5871;SDS011;2962;51.312;7.378;2023-06-22T11:46:38;18.67;;;16.77;;
5871;SDS011;2962;51.312;7.378;2023-06-22T11:49:04;19.60;;;17.40;;
5871;SDS011;2962;51.312;7.378;2023-06-22T11:51:30;20.33;;;18.23;;
5871;SDS011;2962;51.312;7.378;2023-06-22T11:53:56;24.80;;;19.80;;
5871;SDS011;2962;51.312;7.378;2023-06-22T11:56:22;25.33;;;21.27;;
5871;SDS011;2962;51.312;7.378;2023-06-22T11:58:48;26.00;;;21.93;;
5871;SDS011;2962;51.312;7.378;2023-06-22T12:01:13;31.53;;;25.83;;
5871;SDS011;2962;51.312;7.378;2023-06-22T12:03:40;28.30;;;25.33;;
5871;SDS011;2962;51.312;7.378;2023-06-22T12:06:05;30.83;;;24.20;;
5871;SDS011;2962;51.312;7.378;2023-06-22T12:08:30;38.97;;;25.37;;
5871;SDS011;2962;51.312;7.378;2023-06-22T12:10:56;29.97;;;26.27;;
5871;SDS011;2962;51.312;7.378;2023-06-22T12:13:21;35.87;;;26.03;;
5871;SDS011;2962;51.312;7.378;2023-06-22T12:15:46;35.90;;;29.17;;
5871;SDS011;2962;51.312;7.378;2023-06-22T12:18:12;33.37;;;27.77;;
5871;SDS011;2962;51.312;7.378;2023-06-22T12:20:39;34.03;;;26.53;;
5871;SDS011;2962;51.312;7.378;2023-06-22T12:23:07;37.07;;;26.63;;
5871;SDS011;2962;51.312;7.378;2023-06-22T12:25:33;30.10;;;26.50;;
5871;SDS011;2962;51.312;7.378;2023-06-22T12:27:58;36.40;;;27.80;;
5871;SDS011;2962;51.312;7.378;2023-06-22T12:30:23;30.10;;;26.97;;
5871;SDS011;2962;51.312;7.378;2023-06-22T12:32:49;30.30;;;27.10;;
5871;SDS011;2962;51.312;7.378;2023-06-22T12:35:15;29.03;;;25.57;;
5871;SDS011;2962;51.312;7.378;2023-06-22T12:37:41;37.93;;;24.87;;
5871;SDS011;2962;51.312;7.378;2023-06-22T12:40:07;24.97;;;22.27;;
5871;SDS011;2962;51.312;7.378;2023-06-22T12:42:33;27.13;;;24.27;;
5871;SDS011;2962;51.312;7.378;2023-06-22T12:44:58;24.60;;;22.10;;
5871;SDS011;2962;51.312;7.378;2023-06-22T12:47:23;23.57;;;21.20;;
5871;SDS011;2962;51.312;7.378;2023-06-22T12:49:48;22.80;;;19.70;;
5871;SDS011;2962;51.312;7.378;2023-06-22T12:52:14;21.57;;;19.60;;
5871;SDS011;2962;51.312;7.378;2023-06-22T12:54:40;26.43;;;19.73;;
5871;SDS011;2962;51.312;7.378;2023-06-22T12:57:06;20.00;;;18.10;;
5871;SDS011;2962;51.312;7.378;2023-06-22T12:59:34;20.77;;;18.80;;
5871;SDS011;2962;51.312;7.378;2023-06-22T13:01:59;20.43;;;18.43;;
5871;SDS011;2962;51.312;7.378;2023-06-22T13:04:24;20.80;;;17.33;;
5871;SDS011;2962;51.312;7.378;2023-06-22T13:06:50;19.47;;;17.50;;
5871;SDS011;2962;51.312;7.378;2023-06-22T13:09:17;18.67;;;16.87;;
5871;SDS011;2962;51.312;7.378;2023-06-22T13:11:43;19.50;;;17.60;;
5871;SDS011;2962;51.312;7.378;2023-06-22T13:14:09;20.57;;;18.57;;
5871;SDS011;2962;51.312;7.378;2023-06-22T13:16:37;19.90;;;18.00;;
5871;SDS011;2962;51.312;7.378;2023-06-22T13:19:03;17.17;;;15.60;;
5871;SDS011;2962;51.312;7.378;2023-06-22T13:21:28;14.87;;;13.40;;
5871;SDS011;2962;51.312;7.378;2023-06-22T13:23:53;12.20;;;11.23;;
5871;SDS011;2962;51.312;7.378;2023-06-22T13:26:20;11.80;;;10.67;;
5871;SDS011;2962;51.312;7.378;2023-06-22T13:28:49;9.83;;;9.07;;
5871;SDS011;2962;51.312;7.378;2023-06-22T13:31:14;9.33;;;8.73;;
5871;SDS011;2962;51.312;7.378;2023-06-22T13:33:39;10.30;;;9.70;;
5871;SDS011;2962;51.312;7.378;2023-06-22T13:36:06;10.10;;;9.27;;
5871;SDS011;2962;51.312;7.378;2023-06-22T13:38:32;9.37;;;8.67;;
5871;SDS011;2962;51.312;7.378;2023-06-22T13:40:57;8.30;;;7.80;;
5871;SDS011;2962;51.312;7.378;2023-06-22T13:43:26;9.10;;;8.40;;
5871;SDS011;2962;51.312;7.378;2023-06-22T13:45:52;9.00;;;8.40;;
5871;SDS011;2962;51.312;7.378;2023-06-22T13:48:17;9.93;;;9.10;;
5871;SDS011;2962;51.312;7.378;2023-06-22T13:50:43;10.33;;;9.60;;
5871;SDS011;2962;51.312;7.378;2023-06-22T13:53:08;10.23;;;9.50;;
5871;SDS011;2962;51.312;7.378;2023-06-22T13:55:34;11.53;;;10.73;;
5871;SDS011;2962;51.312;7.378;2023-06-22T13:57:59;11.90;;;10.73;;
5871;SDS011;2962;51.312;7.378;2023-06-22T14:00:24;9.67;;;9.07;;
5871;SDS011;2962;51.312;7.378;2023-06-22T14:02:49;9.30;;;8.53;;
5871;SDS011;2962;51.312;7.378;2023-06-22T14:05:15;11.37;;;10.57;;
5871;SDS011;2962;51.312;7.378;2023-06-22T14:07:41;9.93;;;9.10;;
5871;SDS011;2962;51.312;7.378;2023-06-22T14:10:06;9.97;;;9.43;;
5871;SDS011;2962;51.312;7.378;2023-06-22T14:12:32;10.57;;;9.97;;
5871;SDS011;2962;51.312;7.378;2023-06-22T14:14:58;9.47;;;8.90;;
5871;SDS011;2962;51.312;7.378;2023-06-22T14:17:23;9.17;;;8.60;;
5871;SDS011;2962;51.312;7.378;2023-06-22T14:19:50;9.10;;;8.40;;
5871;SDS011;2962;51.312;7.378;2023-06-22T14:22:20;7.87;;;7.27;;
5871;SDS011;2962;51.312;7.378;2023-06-22T14:24:47;7.87;;;7.20;;
5871;SDS011;2962;51.312;7.378;2023-06-22T14:27:13;7.43;;;7.13;;
5871;SDS011;2962;51.312;7.378;2023-06-22T14:29:38;9.00;;;8.40;;
5871;SDS011;2962;51.312;7.378;2023-06-22T14:32:03;8.20;;;7.70;;
5871;SDS011;2962;51.312;7.378;2023-06-22T14:34:32;8.10;;;7.50;;
5871;SDS011;2962;51.312;7.378;2023-06-22T14:37:00;8.03;;;7.50;;
5871;SDS011;2962;51.312;7.378;2023-06-22T14:39:26;6.97;;;6.30;;
5871;SDS011;2962;51.312;7.378;2023-06-22T14:41:51;6.97;;;6.60;;
5871;SDS011;2962;51.312;7.378;2023-06-22T14:44:17;6.90;;;6.47;;
5871;SDS011;2962;51.312;7.378;2023-06-22T14:46:42;6.97;;;6.57;;
5871;SDS011;2962;51.312;7.378;2023-06-22T14:49:10;7.50;;;6.90;;
5871;SDS011;2962;51.312;7.378;2023-06-22T14:51:35;7.20;;;6.80;;
5871;SDS011;2962;51.312;7.378;2023-06-22T14:54:00;8.13;;;7.40;;
5871;SDS011;2962;51.312;7.378;2023-06-22T14:56:26;7.17;;;6.73;;
5871;SDS011;2962;51.312;7.378;2023-06-22T14:58:51;8.37;;;7.87;;
5871;SDS011;2962;51.312;7.378;2023-06-22T15:01:17;7.23;;;6.83;;
5871;SDS011;2962;51.312;7.378;2023-06-22T15:03:45;8.33;;;7.70;;